createdAt,value
2022-09-26T00:00:50.426Z,12.52
2022-09-26T00:03:16.907Z,8.88
2022-09-26T00:05:43.391Z,7.03
2022-09-26T00:08:09.852Z,8.75
2022-09-26T00:10:36.354Z,10.10
2022-09-26T00:13:02.946Z,9.27
2022-09-26T00:15:29.456Z,10.57
2022-09-26T00:17:55.957Z,8.23
2022-09-26T00:20:22.486Z,9.35
2022-09-26T00:22:49.014Z,10.50
2022-09-26T00:25:15.721Z,10.38
2022-09-26T00:27:42.215Z,11.52
2022-09-26T00:30:09.226Z,8.33
2022-09-26T00:32:35.977Z,10.25
2022-09-26T00:35:02.475Z,8.32
2022-09-26T00:37:29.043Z,12.40
2022-09-26T00:39:55.495Z,9.65
2022-09-26T00:42:22.953Z,9.87
2022-09-26T00:44:56.730Z,12.63
2022-09-26T00:47:36.982Z,12.73
2022-09-26T00:50:16.065Z,9.32
2022-09-26T00:52:52.633Z,10.52
2022-09-26T00:55:22.401Z,12.57
2022-09-26T00:57:59.942Z,13.48
2022-09-26T01:00:27.213Z,12.05
2022-09-26T01:02:54.311Z,9.85
2022-09-26T01:05:23.026Z,15.63
2022-09-26T01:07:51.349Z,10.73
2022-09-26T01:10:18.413Z,9.63
2022-09-26T01:12:45.172Z,14.63
2022-09-26T01:15:12.622Z,10.93
2022-09-26T01:17:41.682Z,10.27
2022-09-26T01:20:21.620Z,15.80
2022-09-26T01:23:08.354Z,11.77
2022-09-26T01:26:18.118Z,9.18
2022-09-26T01:28:56.709Z,8.90
2022-09-26T01:32:08.022Z,12.00
2022-09-26T01:34:47.138Z,14.07
2022-09-26T01:37:31.277Z,10.20
2022-09-26T01:40:15.658Z,11.65
2022-09-26T01:43:05.700Z,16.55
2022-09-26T01:45:54.062Z,14.30
2022-09-26T01:48:30.133Z,9.03
2022-09-26T01:51:12.434Z,14.05
2022-09-26T01:53:59.777Z,9.30
2022-09-26T01:56:30.739Z,16.65
2022-09-26T01:59:01.656Z,14.63
2022-09-26T02:01:33.006Z,9.67
2022-09-26T02:04:07.449Z,9.95
2022-09-26T02:06:42.671Z,11.68
2022-09-26T02:09:21.965Z,12.27
2022-09-26T02:11:50.750Z,8.90
2022-09-26T02:14:25.372Z,9.77
2022-09-26T02:16:56.784Z,11.60
2022-09-26T02:19:31.754Z,12.32
2022-09-26T02:22:00.036Z,9.10
2022-09-26T02:24:28.088Z,11.27
2022-09-26T02:26:54.908Z,11.17
2022-09-26T02:29:21.839Z,11.65
2022-09-26T02:31:55.908Z,11.00
2022-09-26T02:34:24.220Z,13.18
2022-09-26T02:36:51.576Z,10.82
2022-09-26T02:39:18.061Z,11.53
2022-09-26T02:41:51.072Z,9.93
2022-09-26T02:44:56.386Z,12.23
2022-09-26T02:47:55.069Z,15.40
2022-09-26T02:50:49.433Z,12.10
2022-09-26T02:53:24.904Z,9.53
2022-09-26T02:56:03.614Z,13.40
2022-09-26T02:59:06.832Z,11.30
2022-09-26T03:01:43.866Z,9.98
2022-09-26T03:04:31.319Z,14.98
2022-09-26T03:07:02.613Z,10.50
2022-09-26T03:09:30.410Z,14.30
2022-09-26T03:12:01.365Z,12.85
2022-09-26T03:14:30.255Z,14.40
2022-09-26T03:16:57.859Z,10.93
2022-09-26T03:19:31.233Z,13.07
2022-09-26T03:21:59.875Z,12.85
2022-09-26T03:24:27.617Z,12.02
2022-09-26T03:26:55.507Z,13.85
2022-09-26T03:29:21.970Z,14.10
2022-09-26T03:31:50.219Z,12.67
2022-09-26T03:34:17.469Z,8.77
2022-09-26T03:36:45.495Z,12.98
2022-09-26T03:39:12.440Z,16.67
2022-09-26T03:41:38.972Z,14.07
2022-09-26T03:44:05.509Z,16.07
2022-09-26T03:46:35.051Z,19.40
2022-09-26T03:49:05.514Z,16.38
2022-09-26T03:51:32.986Z,12.50
2022-09-26T03:53:59.512Z,17.50
2022-09-26T03:56:26.916Z,13.13
2022-09-26T03:58:53.671Z,13.00
2022-09-26T04:01:22.050Z,18.90
2022-09-26T04:03:51.112Z,15.45
2022-09-26T04:06:20.319Z,20.30
2022-09-26T04:08:50.310Z,13.27
2022-09-26T04:11:19.912Z,13.18
2022-09-26T04:13:52.746Z,14.13
2022-09-26T04:16:21.008Z,13.57
2022-09-26T04:18:47.795Z,15.32
2022-09-26T04:21:14.637Z,12.87
2022-09-26T04:23:42.421Z,12.15
2022-09-26T04:26:22.802Z,15.90
2022-09-26T04:28:54.601Z,20.45
2022-09-26T04:31:21.988Z,13.20
2022-09-26T04:33:49.047Z,13.60
2022-09-26T04:36:16.695Z,14.77
2022-09-26T04:38:43.309Z,15.55
2022-09-26T04:41:12.427Z,17.77
2022-09-26T04:43:39.568Z,17.63
2022-09-26T04:46:08.410Z,12.33
2022-09-26T04:48:35.860Z,14.60
2022-09-26T04:51:07.149Z,14.93
2022-09-26T04:53:34.585Z,18.48
2022-09-26T04:56:01.331Z,16.65
2022-09-26T04:58:28.306Z,17.83
2022-09-26T05:00:54.898Z,12.48
2022-09-26T05:03:21.493Z,12.90
2022-09-26T05:05:47.947Z,11.95
2022-09-26T05:08:15.080Z,14.32
2022-09-26T05:10:42.794Z,11.40
2022-09-26T05:13:10.446Z,17.83
2022-09-26T05:15:39.793Z,12.65
2022-09-26T05:18:07.764Z,14.48
2022-09-26T05:20:35.422Z,15.52
2022-09-26T05:23:02.428Z,12.93
2022-09-26T05:25:50.281Z,12.75
2022-09-26T05:28:16.759Z,14.10
2022-09-26T05:30:43.329Z,13.00
2022-09-26T05:33:12.519Z,16.63
2022-09-26T05:35:40.289Z,12.27
2022-09-26T05:38:06.818Z,9.38
2022-09-26T05:41:12.014Z,11.90
2022-09-26T05:43:38.449Z,13.93
2022-09-26T05:46:07.562Z,13.50
2022-09-26T05:48:35.552Z,10.03
2022-09-26T05:51:04.110Z,15.30
2022-09-26T05:53:32.049Z,11.27
2022-09-26T05:55:58.963Z,10.63
2022-09-26T05:58:31.208Z,13.70
2022-09-26T06:01:17.908Z,10.53
2022-09-26T06:03:46.160Z,14.82
2022-09-26T06:06:17.855Z,13.50
2022-09-26T06:08:45.265Z,8.73
2022-09-26T06:11:17.244Z,10.88
2022-09-26T06:13:45.659Z,10.37
2022-09-26T06:16:14.967Z,12.35
2022-09-26T06:18:44.100Z,11.13
2022-09-26T06:21:12.608Z,8.18
2022-09-26T06:23:39.629Z,10.70
2022-09-26T06:26:09.487Z,11.40
2022-09-26T06:28:36.501Z,11.55
2022-09-26T06:31:11.102Z,11.88
2022-09-26T06:33:37.682Z,11.15
2022-09-26T06:36:06.954Z,11.15
2022-09-26T06:38:33.701Z,7.97
2022-09-26T06:41:00.598Z,8.65
2022-09-26T06:43:27.130Z,11.57
2022-09-26T06:45:53.624Z,11.60
2022-09-26T06:48:25.299Z,10.82
2022-09-26T06:50:57.048Z,11.53
2022-09-26T06:53:23.617Z,11.80
2022-09-26T06:55:50.113Z,10.52
2022-09-26T06:58:16.647Z,8.35
2022-09-26T07:00:44.220Z,9.77
2022-09-26T07:03:11.912Z,10.70
2022-09-26T07:05:38.447Z,9.27
2022-09-26T07:08:04.894Z,11.45
2022-09-26T07:10:36.002Z,7.07
2022-09-26T07:13:05.313Z,11.70
2022-09-26T07:15:33.896Z,7.87
2022-09-26T07:18:02.683Z,11.98
2022-09-26T07:20:32.050Z,9.90
2022-09-26T07:23:03.155Z,8.90
2022-09-26T07:25:31.686Z,11.75
2022-09-26T07:27:58.354Z,7.00
2022-09-26T07:30:25.435Z,13.45
2022-09-26T07:32:52.456Z,8.68
2022-09-26T07:35:18.986Z,32.70
2022-09-26T07:37:46.079Z,41.55
2022-09-26T07:40:12.629Z,27.60
2022-09-26T07:42:39.201Z,10.25
2022-09-26T07:45:28.739Z,6.88
2022-09-26T07:48:11.398Z,7.85
2022-09-26T07:50:38.015Z,6.15
2022-09-26T07:53:04.531Z,5.80
2022-09-26T07:55:31.263Z,8.52
2022-09-26T07:57:59.129Z,8.15
2022-09-26T08:00:26.287Z,6.30
2022-09-26T08:02:52.948Z,5.82
2022-09-26T08:05:24.539Z,6.50
2022-09-26T08:07:51.046Z,5.60
2022-09-26T08:10:21.091Z,6.22
2022-09-26T08:12:48.246Z,6.38
2022-09-26T08:15:15.573Z,7.10
2022-09-26T08:17:43.275Z,10.63
2022-09-26T08:20:10.118Z,6.70
2022-09-26T08:22:36.707Z,7.40
2022-09-26T08:25:06.400Z,29.77
2022-09-26T08:27:35.028Z,8.70
2022-09-26T08:30:03.053Z,77.03
2022-09-26T08:32:39.549Z,7.90
2022-09-26T08:35:06.861Z,6.22
2022-09-26T08:37:33.524Z,6.18
2022-09-26T08:40:00.699Z,8.10
2022-09-26T08:42:40.445Z,8.20
2022-09-26T08:45:48.068Z,6.28
2022-09-26T08:48:59.527Z,4.82
2022-09-26T08:51:32.057Z,5.07
2022-09-26T08:54:20.072Z,5.82
2022-09-26T08:56:57.504Z,7.23
2022-09-26T08:59:33.834Z,7.95
2022-09-26T09:02:05.331Z,8.27
2022-09-26T09:04:52.977Z,6.95
2022-09-26T09:07:22.973Z,6.97
2022-09-26T09:09:53.699Z,4.50
2022-09-26T09:12:36.258Z,7.55
2022-09-26T09:15:26.011Z,6.03
2022-09-26T09:18:13.226Z,5.18
2022-09-26T09:20:54.619Z,8.98
2022-09-26T09:23:42.777Z,7.53
2022-09-26T09:29:38.466Z,3.65
2022-09-26T09:32:06.364Z,3.83
2022-09-26T09:34:41.048Z,3.17
2022-09-26T09:37:13.901Z,7.17
2022-09-26T09:39:44.281Z,2.70
2022-09-26T09:42:16.881Z,6.15
2022-09-26T09:45:00.657Z,4.53
2022-09-26T09:47:29.250Z,4.80
2022-09-26T09:49:57.446Z,4.97
2022-09-26T09:52:47.402Z,7.28
2022-09-26T09:55:44.775Z,5.00
2022-09-26T09:58:20.295Z,4.50
2022-09-26T10:01:06.430Z,4.78
2022-09-26T10:03:50.282Z,2.50
2022-09-26T10:06:44.538Z,7.85
2022-09-26T10:09:39.031Z,6.25
2022-09-26T10:12:16.891Z,3.28
2022-09-26T10:14:55.052Z,5.47
2022-09-26T10:17:23.298Z,3.60
2022-09-26T10:19:50.270Z,6.88
2022-09-26T10:22:44.014Z,4.97
2022-09-26T10:25:25.577Z,2.38
2022-09-26T10:27:57.542Z,3.30
2022-09-26T10:30:30.263Z,3.37
2022-09-26T10:33:01.339Z,3.28
2022-09-26T10:35:42.119Z,4.13
2022-09-26T10:38:28.941Z,3.30
2022-09-26T10:41:01.442Z,3.65
2022-09-26T10:43:33.729Z,3.23
2022-09-26T10:46:03.239Z,2.20
2022-09-26T10:48:46.948Z,2.47
2022-09-26T10:51:28.656Z,2.97
2022-09-26T10:54:04.801Z,4.40
2022-09-26T10:56:37.883Z,2.43
2022-09-26T10:59:08.124Z,1.13
2022-09-26T11:01:38.960Z,3.00
2022-09-26T11:05:03.596Z,2.17
2022-09-26T11:07:35.890Z,2.05
2022-09-26T11:10:08.412Z,6.33
2022-09-26T11:12:41.283Z,3.65
2022-09-26T11:15:13.729Z,3.33
2022-09-26T11:17:45.008Z,2.65
2022-09-26T11:20:40.669Z,2.97
2022-09-26T11:23:50.078Z,3.07
2022-09-26T11:26:32.057Z,2.40
2022-09-26T11:29:13.236Z,1.77
2022-09-26T11:31:44.022Z,2.22
2022-09-26T11:34:17.639Z,2.67
2022-09-26T11:37:03.527Z,3.67
2022-09-26T11:40:02.309Z,3.63
2022-09-26T11:43:04.301Z,2.97
2022-09-26T11:46:16.475Z,2.10
2022-09-26T11:49:20.511Z,4.38
2022-09-26T11:52:34.411Z,4.37
2022-09-26T11:55:37.142Z,3.63
2022-09-26T11:58:22.661Z,1.85
2022-09-26T12:01:19.829Z,6.38
2022-09-26T12:04:01.983Z,3.35
2022-09-26T12:06:38.552Z,5.20
2022-09-26T12:09:18.526Z,1.40
2022-09-26T12:11:57.966Z,2.25
2022-09-26T12:14:42.834Z,3.20
2022-09-26T12:17:48.779Z,3.22
2022-09-26T12:20:28.648Z,2.93
2022-09-26T12:23:16.526Z,2.30
2022-09-26T12:25:58.578Z,2.40
2022-09-26T12:29:02.397Z,2.10
2022-09-26T12:31:57.503Z,3.47
2022-09-26T12:34:42.312Z,1.97
2022-09-26T12:37:13.713Z,3.13
2022-09-26T12:39:49.038Z,4.47
2022-09-26T12:42:38.582Z,3.47
2022-09-26T12:45:15.188Z,2.47
2022-09-26T12:48:02.191Z,6.03
2022-09-26T12:50:43.877Z,3.97
2022-09-26T12:53:25.306Z,2.97
2022-09-26T12:56:01.647Z,16.40
2022-09-26T12:58:46.428Z,5.40
2022-09-26T13:01:16.038Z,7.87
2022-09-26T13:03:59.689Z,3.92
2022-09-26T13:07:17.668Z,3.25
2022-09-26T13:10:27.948Z,4.80
2022-09-26T13:13:21.237Z,2.05
2022-09-26T13:16:03.993Z,2.07
2022-09-26T13:18:39.692Z,2.58
2022-09-26T13:21:12.021Z,2.72
2022-09-26T13:23:59.474Z,3.17
2022-09-26T13:26:30.637Z,6.05
2022-09-26T13:29:18.142Z,3.33
2022-09-26T13:31:56.022Z,1.73
2022-09-26T13:34:40.203Z,4.80
2022-09-26T13:37:20.611Z,2.88
2022-09-26T13:39:53.386Z,2.60
2022-09-26T13:42:28.698Z,3.93
2022-09-26T13:45:34.569Z,2.15
2022-09-26T13:48:08.391Z,2.22
2022-09-26T13:50:50.177Z,1.40
2022-09-26T13:53:21.563Z,1.70
2022-09-26T13:56:27.629Z,1.57
2022-09-26T13:59:15.399Z,2.33
2022-09-26T14:02:16.252Z,2.63
2022-09-26T14:04:46.761Z,7.38
2022-09-26T14:07:35.692Z,2.55
2022-09-26T14:10:02.131Z,2.60
2022-09-26T14:12:54.695Z,2.47
2022-09-26T14:15:27.498Z,2.53
2022-09-26T14:18:23.381Z,12.73
2022-09-26T14:21:14.705Z,8.43
2022-09-26T14:23:49.245Z,1.77
2022-09-26T14:26:15.699Z,1.65
2022-09-26T14:28:50.416Z,1.30
2022-09-26T14:31:26.311Z,1.13
2022-09-26T14:34:26.789Z,2.20
2022-09-26T14:36:56.341Z,1.87
2022-09-26T14:39:40.301Z,1.67
2022-09-26T14:42:21.584Z,2.53
2022-09-26T14:45:00.165Z,4.32
2022-09-26T14:47:29.952Z,2.97
2022-09-26T14:50:06.230Z,2.90
2022-09-26T14:52:34.305Z,3.63
2022-09-26T14:55:06.064Z,4.65
2022-09-26T14:57:34.535Z,2.80
2022-09-26T15:00:01.929Z,1.83
2022-09-26T15:02:38.254Z,2.40
2022-09-26T15:05:17.162Z,1.48
2022-09-26T15:07:47.659Z,2.45
2022-09-26T15:10:21.674Z,2.10
2022-09-26T15:12:57.689Z,1.85
2022-09-26T15:15:49.051Z,3.17
2022-09-26T15:18:27.659Z,1.83
2022-09-26T15:21:03.266Z,1.92
2022-09-26T15:23:33.711Z,1.67
2022-09-26T15:26:05.857Z,4.57
2022-09-26T15:28:34.865Z,1.77
2022-09-26T15:31:38.459Z,2.80
2022-09-26T15:34:19.081Z,2.28
2022-09-26T15:36:51.499Z,1.92
2022-09-26T15:39:30.346Z,1.75
2022-09-26T15:42:16.483Z,3.90
2022-09-26T15:44:58.590Z,1.35
2022-09-26T15:47:31.728Z,2.13
2022-09-26T15:50:40.370Z,1.92
2022-09-26T15:53:23.319Z,2.10
2022-09-26T15:56:16.472Z,2.57
2022-09-26T15:58:49.181Z,1.20
2022-09-26T16:01:21.133Z,3.58
2022-09-26T16:04:04.302Z,1.90
2022-09-26T16:06:38.347Z,1.25
2022-09-26T16:09:07.121Z,1.07
2022-09-26T16:11:41.897Z,1.95
2022-09-26T16:14:25.544Z,2.45
2022-09-26T16:16:55.483Z,1.38
2022-09-26T16:19:58.733Z,1.35
2022-09-26T16:22:39.972Z,3.80
2022-09-26T16:25:15.757Z,2.42
2022-09-26T16:27:43.217Z,1.55
2022-09-26T16:30:25.444Z,3.17
2022-09-26T16:33:13.078Z,3.20
2022-09-26T16:35:47.806Z,2.73
2022-09-26T16:38:26.080Z,1.95
2022-09-26T16:41:01.697Z,3.65
2022-09-26T16:43:32.737Z,2.22
2022-09-26T16:46:05.521Z,1.55
2022-09-26T16:48:39.877Z,3.73
2022-09-26T16:51:24.145Z,14.35
2022-09-26T16:54:17.758Z,1.15
2022-09-26T16:56:46.308Z,2.00
2022-09-26T16:59:25.776Z,4.03
2022-09-26T17:01:56.186Z,1.50
2022-09-26T17:04:31.310Z,1.02
2022-09-26T17:07:04.289Z,2.67
2022-09-26T17:09:32.889Z,1.75
2022-09-26T17:12:05.817Z,2.47
2022-09-26T17:14:40.412Z,2.67
2022-09-26T17:17:16.962Z,1.27
2022-09-26T17:19:46.369Z,1.85
2022-09-26T17:22:19.242Z,2.60
2022-09-26T17:24:47.977Z,1.65
2022-09-26T17:27:17.628Z,2.43
2022-09-26T17:29:48.427Z,2.42
2022-09-26T17:32:29.568Z,1.63
2022-09-26T17:34:59.825Z,3.42
2022-09-26T17:37:27.452Z,4.75
2022-09-26T17:39:55.263Z,1.83
2022-09-26T17:42:22.699Z,4.68
2022-09-26T17:44:50.305Z,1.98
2022-09-26T17:47:18.690Z,1.70
2022-09-26T17:49:54.744Z,2.45
2022-09-26T17:52:28.856Z,2.37
2022-09-26T17:54:58.585Z,1.58
2022-09-26T17:57:27.821Z,2.60
2022-09-26T17:59:54.878Z,3.45
2022-09-26T18:02:31.592Z,2.28
2022-09-26T18:05:06.097Z,1.30
2022-09-26T18:07:39.158Z,2.67
2022-09-26T18:10:15.394Z,1.63
2022-09-26T18:12:42.136Z,2.83
2022-09-26T18:15:16.110Z,19.85
2022-09-26T18:17:43.493Z,1.50
2022-09-26T18:20:10.130Z,2.03
2022-09-26T18:22:36.814Z,2.47
2022-09-26T18:25:07.286Z,6.15
2022-09-26T18:27:40.531Z,3.97
2022-09-26T18:30:07.906Z,3.83
2022-09-26T18:32:38.955Z,2.60
2022-09-26T18:35:13.966Z,4.03
2022-09-26T18:37:40.483Z,3.58
2022-09-26T18:40:11.114Z,4.95
2022-09-26T18:42:38.161Z,7.13
2022-09-26T18:45:08.581Z,3.97
2022-09-26T18:47:43.971Z,4.05
2022-09-26T18:50:26.794Z,3.13
2022-09-26T18:52:53.655Z,2.20
2022-09-26T18:55:42.986Z,4.40
2022-09-26T18:58:27.104Z,3.47
2022-09-26T19:01:08.291Z,3.05
2022-09-26T19:03:37.850Z,4.25
2022-09-26T19:06:07.813Z,3.38
2022-09-26T19:08:43.008Z,3.03
2022-09-26T19:11:19.485Z,3.20
2022-09-26T19:14:12.229Z,4.13
2022-09-26T19:16:38.778Z,3.63
2022-09-26T19:19:05.322Z,2.42
2022-09-26T19:21:40.865Z,4.57
2022-09-26T19:24:20.729Z,2.35
2022-09-26T19:26:53.109Z,4.18
2022-09-26T19:29:31.004Z,3.05
2022-09-26T19:31:58.143Z,2.20
2022-09-26T19:34:26.512Z,4.20
2022-09-26T19:36:55.790Z,4.25
2022-09-26T19:39:22.962Z,3.90
2022-09-26T19:41:49.572Z,2.50
2022-09-26T19:44:16.300Z,2.53
2022-09-26T19:46:45.495Z,2.33
2022-09-26T19:49:17.896Z,1.55
2022-09-26T19:51:44.910Z,2.33
2022-09-26T19:54:17.473Z,4.00
2022-09-26T19:56:45.648Z,2.75
2022-09-26T19:59:13.602Z,2.70
2022-09-26T20:01:42.384Z,3.08
2022-09-26T20:04:17.710Z,4.45
2022-09-26T20:06:45.168Z,3.47
2022-09-26T20:09:17.559Z,2.20
2022-09-26T20:11:44.514Z,14.97
2022-09-26T20:14:23.200Z,3.65
2022-09-26T20:16:51.491Z,2.15
2022-09-26T20:19:39.558Z,4.43
2022-09-26T20:22:13.504Z,1.98
2022-09-26T20:24:40.439Z,1.80
2022-09-26T20:27:14.582Z,3.55
2022-09-26T20:29:59.697Z,3.83
2022-09-26T20:32:26.494Z,3.83
2022-09-26T20:34:53.094Z,4.57
2022-09-26T20:37:21.102Z,2.67
2022-09-26T20:39:47.614Z,3.78
2022-09-26T20:42:17.603Z,2.38
2022-09-26T20:44:47.570Z,2.05
2022-09-26T20:47:19.449Z,2.00
2022-09-26T20:50:00.960Z,4.13
2022-09-26T20:52:29.638Z,2.85
2022-09-26T20:54:57.150Z,2.28
2022-09-26T20:57:24.770Z,3.28
2022-09-26T20:59:51.490Z,2.72
2022-09-26T21:02:36.981Z,2.13
2022-09-26T21:05:06.340Z,3.38
2022-09-26T21:07:33.003Z,5.78
2022-09-26T21:09:59.564Z,4.22
2022-09-26T21:12:26.062Z,2.78
2022-09-26T21:14:52.736Z,1.80
2022-09-26T21:17:23.290Z,1.63
2022-09-26T21:19:51.313Z,1.83
2022-09-26T21:22:20.577Z,3.05
2022-09-26T21:24:49.162Z,1.63
2022-09-26T21:27:15.994Z,5.33
2022-09-26T21:29:43.526Z,2.78
2022-09-26T21:32:17.483Z,2.38
2022-09-26T21:34:55.399Z,2.63
2022-09-26T21:37:21.914Z,1.88
2022-09-26T21:39:48.549Z,1.70
2022-09-26T21:42:15.155Z,2.10
2022-09-26T21:44:45.930Z,3.35
2022-09-26T21:47:12.447Z,2.00
2022-09-26T21:49:39.062Z,1.77
2022-09-26T21:52:30.996Z,1.50
2022-09-26T21:54:59.343Z,1.48
2022-09-26T21:57:31.879Z,2.45
2022-09-26T21:59:58.704Z,2.65
2022-09-26T22:02:25.789Z,1.88
2022-09-26T22:04:52.688Z,2.80
2022-09-26T22:07:20.177Z,2.28
2022-09-26T22:09:46.826Z,2.42
2022-09-26T22:12:13.879Z,2.78
2022-09-26T22:14:40.813Z,2.53
2022-09-26T22:17:07.368Z,3.00
2022-09-26T22:19:35.087Z,3.53
2022-09-26T22:22:01.782Z,1.52
2022-09-26T22:24:28.730Z,1.17
2022-09-26T22:26:55.371Z,2.15
2022-09-26T22:29:22.044Z,2.17
2022-09-26T22:31:48.561Z,2.55
2022-09-26T22:34:15.724Z,1.35
2022-09-26T22:36:42.236Z,3.08
2022-09-26T22:39:08.915Z,1.52
2022-09-26T22:41:35.539Z,1.17
2022-09-26T22:44:03.906Z,1.77
2022-09-26T22:46:33.688Z,1.90
2022-09-26T22:49:00.498Z,2.17
2022-09-26T22:51:27.495Z,1.60
2022-09-26T22:53:54.294Z,1.37
2022-09-26T22:56:20.822Z,1.73
2022-09-26T22:58:51.023Z,1.42
2022-09-26T23:01:20.265Z,1.65
2022-09-26T23:03:46.856Z,4.00
2022-09-26T23:06:13.444Z,1.93
2022-09-26T23:08:40.047Z,2.05
2022-09-26T23:11:07.797Z,2.05
2022-09-26T23:13:35.479Z,2.22
2022-09-26T23:16:10.989Z,2.00
2022-09-26T23:18:39.320Z,1.80
2022-09-26T23:21:20.151Z,3.78
2022-09-26T23:23:49.494Z,2.60
2022-09-26T23:26:36.236Z,3.35
2022-09-26T23:29:02.781Z,2.53
2022-09-26T23:31:30.015Z,1.97
2022-09-26T23:33:57.352Z,1.25
2022-09-26T23:36:24.098Z,2.50
2022-09-26T23:38:50.928Z,2.03
2022-09-26T23:41:18.013Z,3.58
2022-09-26T23:43:46.280Z,2.43
2022-09-26T23:46:12.826Z,1.45
2022-09-26T23:48:39.567Z,1.25
2022-09-26T23:51:06.613Z,2.13
2022-09-26T23:53:33.211Z,1.30
2022-09-26T23:56:08.850Z,2.80
2022-09-26T23:58:36.992Z,2.80
